NCAR-RAP Real-Time Weather Data

Output produced by METARs form (21 April 2018  13:06 UTC)
found at http://weather.rap.ucar.edu/surface/
 
Conditions at: KHQZ observed 21 April 2018  12:50 UTC
Temperature: 12.0°C (54°F)
Dewpoint: 8.0°C (46°F) [RH = 76%]
Pressure (altimeter): 30.02 inches Hg (1016.7 mb)
Winds: from the ESE (110 degrees) at 13 MPH (11 knots; 5.7 m/s)
Visibility: 10 or more miles (16+ km)
Ceiling: at least 12,000 feet AGL
Clouds: sky clear below 12,000 feet AGL
Present Weather: no significant weather observed at this time
KHQZ 211250Z 11011KT 10SM CLR 12/08 A3002